Terminal Aerodrome Forecast
Issued by NWS

Home | Current Version | Previous Version | Text Only | Print | Product List | Glossary On
Versions: 1 2 3 4 5 6 7 8 9 10 11 12 13 14 15 16 17 18 19 20 21 22 23 24 25 26 27 28 29 30 31 32 33 34 35 36 37
851
FTUS44 KHGX 131140
TAFCXO
TAF
KCXO 131140Z 1312/1412 08004KT P6SM OVC060
     FM131400 07006KT P6SM BKN025
     FM131900 12010KT P6SM BKN025
     FM140000 13007KT P6SM SCT015 BKN035
     FM140400 13006KT P6SM BKN015 OVC030=

USA.gov is the U.S. government's official web portal to all federal, state and local government web resources and services.